createdAt,value
2022-12-20T00:01:52.751Z,97.14
2022-12-20T00:04:22.551Z,97.04
2022-12-20T00:06:50.080Z,97.16
2022-12-20T00:09:17.749Z,97.32
2022-12-20T00:11:45.381Z,97.19
2022-12-20T00:14:13.114Z,96.60
2022-12-20T00:16:42.896Z,96.33
2022-12-20T00:19:11.833Z,96.13
2022-12-20T00:21:39.456Z,95.67
2022-12-20T00:24:07.527Z,95.58
2022-12-20T00:26:38.062Z,95.29
2022-12-20T00:29:10.675Z,95.02
2022-12-20T00:31:38.859Z,94.78
2022-12-20T00:34:06.565Z,94.62
2022-12-20T00:36:34.405Z,94.52
2022-12-20T00:39:02.624Z,94.31
2022-12-20T00:41:34.807Z,94.22
2022-12-20T00:44:05.667Z,94.20
2022-12-20T00:46:35.745Z,94.20
2022-12-20T00:49:05.521Z,93.90
2022-12-20T00:51:35.432Z,93.86
2022-12-20T00:54:03.048Z,93.89
2022-12-20T00:56:30.629Z,93.95
2022-12-20T00:59:02.339Z,93.72
2022-12-20T01:01:32.675Z,93.69
2022-12-20T01:04:00.792Z,93.71
2022-12-20T01:06:32.187Z,93.69
2022-12-20T01:09:00.277Z,93.83
2022-12-20T01:11:33.119Z,93.79
2022-12-20T01:14:04.458Z,93.70
2022-12-20T01:16:36.498Z,93.66
2022-12-20T01:19:07.821Z,93.76
2022-12-20T01:21:38.099Z,93.73
2022-12-20T01:24:05.881Z,93.89
2022-12-20T01:26:33.467Z,93.93
2022-12-20T01:29:02.604Z,94.00
2022-12-20T01:31:31.111Z,93.94
2022-12-20T01:34:00.918Z,93.83
2022-12-20T01:36:33.258Z,93.81
2022-12-20T01:39:04.361Z,93.79
2022-12-20T01:41:33.238Z,93.81
2022-12-20T01:44:05.731Z,93.92
2022-12-20T01:46:36.157Z,93.88
2022-12-20T01:49:07.051Z,93.85
2022-12-20T01:51:40.375Z,93.78
2022-12-20T01:54:15.900Z,93.93
2022-12-20T01:56:49.525Z,94.08
2022-12-20T01:59:17.406Z,93.96
2022-12-20T02:01:47.764Z,94.04
2022-12-20T02:04:17.705Z,93.73
2022-12-20T02:06:45.263Z,93.84
2022-12-20T02:09:12.874Z,93.96
2022-12-20T02:11:46.795Z,93.94
2022-12-20T02:14:37.273Z,94.05
2022-12-20T02:17:25.410Z,93.85
2022-12-20T02:20:17.704Z,93.91
2022-12-20T02:22:54.236Z,93.98
2022-12-20T02:26:00.557Z,94.01
2022-12-20T02:29:02.332Z,94.24
2022-12-20T02:31:44.041Z,94.33
2022-12-20T02:34:14.096Z,94.39
2022-12-20T02:36:41.686Z,94.44
2022-12-20T02:39:15.194Z,94.62
2022-12-20T02:41:50.127Z,94.99
2022-12-20T02:44:37.050Z,95.55
2022-12-20T02:47:08.059Z,95.61
2022-12-20T02:49:41.275Z,96.09
2022-12-20T02:52:10.934Z,96.17
2022-12-20T02:54:40.791Z,95.66
2022-12-20T02:57:19.581Z,95.82
2022-12-20T02:59:58.737Z,95.73
2022-12-20T03:02:27.001Z,95.62
2022-12-20T03:04:57.747Z,95.14
2022-12-20T03:07:25.356Z,94.92
2022-12-20T03:09:52.929Z,95.14
2022-12-20T03:12:20.551Z,94.76
2022-12-20T03:14:48.154Z,94.71
2022-12-20T03:17:15.753Z,94.62
2022-12-20T03:19:43.293Z,94.56
2022-12-20T03:22:15.352Z,94.56
2022-12-20T03:24:42.863Z,94.41
2022-12-20T03:27:13.507Z,94.35
2022-12-20T03:29:44.635Z,94.42
2022-12-20T03:32:12.231Z,94.49
2022-12-20T03:34:42.605Z,94.61
2022-12-20T03:37:12.518Z,94.72
2022-12-20T03:39:40.081Z,94.63
2022-12-20T03:42:07.663Z,94.74
2022-12-20T03:44:35.288Z,94.97
2022-12-20T03:47:02.987Z,95.02
2022-12-20T03:49:30.515Z,94.98
2022-12-20T03:52:01.052Z,94.94
2022-12-20T03:54:28.653Z,95.13
2022-12-20T03:56:56.213Z,95.26
2022-12-20T03:59:25.995Z,95.52
2022-12-20T04:01:54.103Z,95.65
2022-12-20T04:04:25.399Z,95.67
2022-12-20T04:06:55.375Z,95.27
2022-12-20T04:09:24.226Z,95.61
2022-12-20T04:11:51.785Z,95.65
2022-12-20T04:14:19.414Z,95.23
2022-12-20T04:16:51.154Z,95.38
2022-12-20T04:19:18.683Z,95.21
2022-12-20T04:21:49.103Z,95.27
2022-12-20T04:24:17.143Z,95.97
2022-12-20T04:26:46.215Z,95.74
2022-12-20T04:29:16.135Z,95.55
2022-12-20T04:31:43.691Z,95.35
2022-12-20T04:34:13.375Z,95.14
2022-12-20T04:36:40.916Z,95.13
2022-12-20T04:39:10.757Z,94.81
2022-12-20T04:41:38.304Z,94.79
2022-12-20T04:44:06.018Z,94.73
2022-12-20T04:46:34.954Z,94.71
2022-12-20T04:49:02.671Z,94.58
2022-12-20T04:51:32.748Z,94.64
2022-12-20T04:54:02.711Z,94.67
2022-12-20T04:56:30.760Z,94.54
2022-12-20T04:58:59.739Z,94.62
2022-12-20T05:01:27.995Z,94.77
2022-12-20T05:03:55.728Z,94.96
2022-12-20T05:06:23.363Z,95.15
2022-12-20T05:08:50.929Z,95.29
2022-12-20T05:11:23.073Z,95.35
2022-12-20T05:13:52.772Z,95.50
2022-12-20T05:16:20.349Z,95.33
2022-12-20T05:18:49.439Z,95.33
2022-12-20T05:21:34.975Z,95.43
2022-12-20T05:24:20.396Z,95.49
2022-12-20T05:26:47.924Z,95.11
2022-12-20T05:29:20.381Z,95.27
2022-12-20T05:31:48.189Z,95.37
2022-12-20T05:34:17.551Z,95.60
2022-12-20T05:36:45.214Z,95.67
2022-12-20T05:39:12.769Z,95.70
2022-12-20T05:41:40.614Z,95.55
2022-12-20T05:44:11.056Z,95.58
2022-12-20T05:46:40.958Z,95.49
2022-12-20T05:49:09.141Z,95.68
2022-12-20T05:51:36.805Z,95.58
2022-12-20T05:54:05.488Z,95.60
2022-12-20T05:56:32.991Z,95.58
2022-12-20T05:59:00.552Z,95.48
2022-12-20T06:01:30.755Z,95.55
2022-12-20T06:04:00.682Z,95.68
2022-12-20T06:06:28.239Z,95.66
2022-12-20T06:08:57.991Z,95.69
2022-12-20T06:11:29.904Z,95.78
2022-12-20T06:13:58.378Z,95.82
2022-12-20T06:16:26.158Z,95.77
2022-12-20T06:18:53.977Z,95.93
2022-12-20T06:21:21.496Z,95.98
2022-12-20T06:23:49.395Z,96.07
2022-12-20T06:26:19.076Z,96.15
2022-12-20T06:28:47.079Z,96.10
2022-12-20T06:31:16.201Z,96.38
2022-12-20T06:33:44.029Z,95.99
2022-12-20T06:36:12.855Z,96.00
2022-12-20T06:38:41.689Z,96.03
2022-12-20T06:41:10.858Z,96.17
2022-12-20T06:43:40.855Z,96.25
2022-12-20T06:46:10.650Z,95.89
2022-12-20T06:48:38.238Z,96.04
2022-12-20T06:51:05.952Z,95.95
2022-12-20T06:53:35.301Z,96.11
2022-12-20T06:56:03.097Z,95.87
2022-12-20T06:58:30.707Z,95.73
2022-12-20T07:00:58.327Z,95.64
2022-12-20T07:03:29.204Z,95.51
2022-12-20T07:05:57.345Z,95.54
2022-12-20T07:08:25.927Z,95.28
2022-12-20T07:10:54.544Z,94.93
2022-12-20T07:13:22.461Z,94.64
2022-12-20T07:15:51.028Z,94.32
2022-12-20T07:18:18.596Z,93.90
2022-12-20T07:20:46.132Z,93.57
2022-12-20T07:23:14.388Z,93.24
2022-12-20T07:25:53.316Z,92.83
2022-12-20T07:28:20.922Z,92.40
2022-12-20T07:30:48.869Z,92.29
2022-12-20T07:33:16.514Z,91.68
2022-12-20T07:35:49.449Z,91.00
2022-12-20T07:38:20.072Z,90.86
2022-12-20T07:40:47.718Z,90.69
2022-12-20T07:43:15.458Z,90.11
2022-12-20T07:45:43.322Z,90.23
2022-12-20T07:48:19.816Z,90.38
2022-12-20T07:50:50.032Z,89.90
2022-12-20T07:53:18.021Z,88.35
2022-12-20T07:55:45.781Z,87.81
2022-12-20T07:58:16.382Z,86.80
2022-12-20T08:00:47.642Z,85.86
2022-12-20T08:03:19.078Z,85.73
2022-12-20T08:05:53.730Z,84.37
2022-12-20T08:08:24.528Z,84.29
2022-12-20T08:10:52.517Z,83.93
2022-12-20T08:13:22.449Z,82.98
2022-12-20T08:15:52.898Z,84.57
2022-12-20T08:18:22.097Z,85.54
2022-12-20T08:20:51.073Z,87.16
2022-12-20T08:23:19.607Z,86.61
2022-12-20T08:25:47.284Z,86.27
2022-12-20T08:28:15.079Z,87.11
2022-12-20T08:30:42.964Z,86.46
2022-12-20T08:33:11.640Z,86.11
2022-12-20T08:35:41.703Z,85.39
2022-12-20T08:38:09.637Z,82.32
2022-12-20T08:40:37.515Z,78.67
2022-12-20T08:43:09.946Z,76.45
2022-12-20T08:45:37.817Z,73.93
2022-12-20T08:48:07.722Z,72.69
2022-12-20T08:50:38.652Z,69.55
2022-12-20T08:53:06.204Z,71.71
2022-12-20T08:55:33.923Z,71.51
2022-12-20T08:58:08.791Z,72.01
2022-12-20T09:00:37.618Z,70.29
2022-12-20T09:03:05.765Z,72.58
2022-12-20T09:05:37.612Z,73.29
2022-12-20T09:08:05.682Z,73.26
2022-12-20T09:10:33.231Z,70.17
2022-12-20T09:13:00.806Z,70.09
2022-12-20T09:15:28.473Z,71.40
2022-12-20T09:18:00.288Z,68.85
2022-12-20T09:20:29.776Z,70.70
2022-12-20T09:22:57.424Z,69.12
2022-12-20T09:25:25.683Z,68.66
2022-12-20T09:27:55.526Z,67.31
2022-12-20T09:30:24.756Z,68.84
2022-12-20T09:32:53.264Z,68.84
2022-12-20T09:35:23.839Z,67.59
2022-12-20T09:37:53.886Z,65.97
2022-12-20T09:40:24.091Z,66.93
2022-12-20T09:42:57.232Z,65.33
2022-12-20T09:45:32.085Z,66.93
2022-12-20T09:48:05.808Z,66.82
2022-12-20T09:51:00.369Z,67.04
2022-12-20T09:54:13.230Z,66.11
2022-12-20T09:56:47.999Z,66.51
2022-12-20T09:59:25.433Z,66.55
2022-12-20T10:01:53.898Z,67.08
2022-12-20T10:04:22.047Z,67.49
2022-12-20T10:07:28.918Z,67.10
2022-12-20T10:10:03.063Z,68.91
2022-12-20T10:12:40.796Z,69.79
2022-12-20T10:15:47.517Z,70.60
2022-12-20T10:18:34.962Z,70.80
2022-12-20T10:21:27.247Z,71.14
2022-12-20T10:24:03.583Z,71.52
2022-12-20T10:26:33.615Z,71.02
2022-12-20T10:29:02.418Z,71.79
2022-12-20T10:31:30.165Z,71.96
2022-12-20T10:33:58.058Z,71.25
2022-12-20T10:36:26.295Z,71.61
2022-12-20T10:39:00.985Z,71.19
2022-12-20T10:41:32.438Z,71.29
2022-12-20T10:44:04.076Z,71.30
2022-12-20T10:46:53.810Z,70.26
2022-12-20T10:49:35.332Z,69.26
2022-12-20T10:52:17.597Z,68.83
2022-12-20T10:54:48.357Z,68.90
2022-12-20T10:57:32.095Z,67.87
2022-12-20T11:00:02.383Z,68.58
2022-12-20T11:02:38.863Z,69.69
2022-12-20T11:05:14.455Z,71.00
2022-12-20T11:10:50.695Z,71.67
2022-12-20T11:13:26.136Z,71.92
2022-12-20T11:15:57.780Z,71.55
2022-12-20T11:18:43.295Z,71.41
2022-12-20T11:22:08.777Z,71.45
2022-12-20T11:24:51.712Z,71.06
2022-12-20T11:27:25.528Z,71.39
2022-12-20T11:29:53.149Z,71.34
2022-12-20T11:32:43.078Z,71.80
2022-12-20T11:35:20.237Z,72.18
2022-12-20T11:38:12.980Z,71.86
2022-12-20T11:40:54.813Z,71.70
2022-12-20T11:43:22.421Z,71.88
2022-12-20T11:45:52.786Z,71.58
2022-12-20T11:48:45.233Z,71.49
2022-12-20T11:51:36.429Z,71.13
2022-12-20T11:54:07.032Z,71.34
2022-12-20T11:56:44.341Z,71.21
2022-12-20T11:59:31.116Z,71.05
2022-12-20T12:02:05.778Z,71.32
2022-12-20T12:04:43.004Z,71.17
2022-12-20T12:07:21.716Z,70.65
2022-12-20T12:09:58.134Z,70.39
2022-12-20T12:12:28.130Z,70.20
2022-12-20T12:15:16.723Z,68.81
2022-12-20T12:17:53.987Z,69.65
2022-12-20T12:20:43.418Z,68.31
2022-12-20T12:23:55.634Z,67.45
2022-12-20T12:26:26.095Z,67.71
2022-12-20T12:29:02.516Z,67.28
2022-12-20T12:31:37.777Z,67.09
2022-12-20T12:34:38.244Z,67.92
2022-12-20T12:37:27.798Z,69.55
2022-12-20T12:40:13.460Z,70.25
2022-12-20T12:43:15.298Z,70.44
2022-12-20T12:45:59.650Z,70.84
2022-12-20T12:48:46.151Z,70.70
2022-12-20T12:51:17.420Z,70.77
2022-12-20T12:53:50.573Z,71.16
2022-12-20T12:56:43.338Z,71.79
2022-12-20T12:59:33.675Z,71.64
2022-12-20T13:02:04.577Z,71.52
2022-12-20T13:04:32.930Z,72.01
2022-12-20T13:07:03.465Z,72.20
2022-12-20T13:09:31.124Z,72.45
2022-12-20T13:12:03.282Z,72.29
2022-12-20T13:14:32.077Z,72.57
2022-12-20T13:17:16.217Z,72.72
2022-12-20T13:19:55.525Z,72.96
2022-12-20T13:22:26.652Z,73.11
2022-12-20T13:24:56.340Z,72.86
2022-12-20T13:27:29.143Z,72.90
2022-12-20T13:30:02.673Z,73.29
2022-12-20T13:32:48.471Z,73.42
2022-12-20T13:35:48.866Z,73.26
2022-12-20T13:38:40.740Z,73.46
2022-12-20T13:41:21.117Z,73.33
2022-12-20T13:43:50.697Z,73.54
2022-12-20T13:46:40.193Z,73.94
2022-12-20T13:49:13.694Z,74.04
2022-12-20T13:51:41.410Z,74.25
2022-12-20T13:54:25.045Z,74.15
2022-12-20T13:56:55.116Z,74.43
2022-12-20T13:59:33.396Z,74.53
2022-12-20T14:02:08.482Z,74.41
2022-12-20T14:04:43.571Z,74.89
2022-12-20T14:07:15.827Z,74.95
2022-12-20T14:09:47.105Z,74.96
2022-12-20T14:12:26.253Z,74.84
2022-12-20T14:14:56.926Z,74.86
2022-12-20T14:17:29.764Z,74.91
2022-12-20T14:20:07.854Z,74.77
2022-12-20T14:22:37.469Z,74.89
2022-12-20T14:25:08.198Z,75.26
2022-12-20T14:27:38.577Z,75.23
2022-12-20T14:30:07.343Z,75.48
2022-12-20T14:35:07.988Z,75.84
2022-12-20T14:37:39.234Z,76.09
2022-12-20T14:40:10.297Z,76.55
2022-12-20T14:42:40.266Z,76.82
2022-12-20T14:45:22.045Z,77.07
2022-12-20T14:48:18.039Z,76.94
2022-12-20T14:50:54.969Z,77.09
2022-12-20T14:53:28.777Z,77.55
2022-12-20T14:55:57.664Z,76.90
2022-12-20T14:58:32.750Z,76.99
2022-12-20T15:01:03.703Z,76.86
2022-12-20T15:03:31.522Z,77.36
2022-12-20T15:06:01.113Z,77.11
2022-12-20T15:08:32.829Z,77.67
2022-12-20T15:11:03.896Z,77.70
2022-12-20T15:13:35.515Z,78.92
2022-12-20T15:16:18.461Z,79.70
2022-12-20T15:18:47.207Z,80.48
2022-12-20T15:21:20.630Z,81.43
2022-12-20T15:23:55.868Z,80.95
2022-12-20T15:26:26.880Z,81.07
2022-12-20T15:28:56.011Z,81.38
2022-12-20T15:31:33.644Z,82.13
2022-12-20T15:34:08.588Z,82.04
2022-12-20T15:36:36.217Z,83.47
2022-12-20T15:39:13.642Z,82.38
2022-12-20T15:41:46.292Z,83.04
2022-12-20T15:44:18.708Z,83.07
2022-12-20T15:46:46.377Z,83.07
2022-12-20T15:49:37.831Z,83.09
2022-12-20T15:52:05.776Z,82.86
2022-12-20T15:54:38.370Z,83.29
2022-12-20T15:57:08.637Z,83.20
2022-12-20T16:02:27.669Z,83.57
2022-12-20T16:04:56.519Z,83.90
2022-12-20T16:07:26.813Z,84.38
2022-12-20T16:09:55.077Z,84.44
2022-12-20T16:12:37.204Z,84.56
2022-12-20T16:15:05.956Z,84.64
2022-12-20T16:17:34.140Z,84.76
2022-12-20T16:20:01.870Z,85.05
2022-12-20T16:22:29.547Z,84.85
2022-12-20T16:24:57.156Z,84.41
2022-12-20T16:27:24.962Z,84.43
2022-12-20T16:29:52.600Z,84.98
2022-12-20T16:32:22.003Z,85.19
2022-12-20T16:34:56.356Z,84.76
2022-12-20T16:37:26.415Z,84.94
2022-12-20T16:39:56.536Z,85.33
2022-12-20T16:42:24.179Z,84.79
2022-12-20T16:44:53.651Z,85.06
2022-12-20T16:47:21.681Z,84.98
2022-12-20T16:49:52.990Z,84.81
2022-12-20T16:52:23.247Z,85.40
2022-12-20T16:54:51.563Z,84.95
2022-12-20T16:57:19.248Z,85.64
2022-12-20T16:59:47.092Z,85.51
2022-12-20T17:02:28.395Z,85.80
2022-12-20T17:04:56.520Z,85.70
2022-12-20T17:07:24.292Z,85.30
2022-12-20T17:10:10.947Z,85.43
2022-12-20T17:12:38.697Z,85.73
2022-12-20T17:15:06.979Z,85.79
2022-12-20T17:17:34.668Z,85.63
2022-12-20T17:20:04.666Z,85.84
2022-12-20T17:22:32.276Z,86.17
2022-12-20T17:25:01.084Z,86.07
2022-12-20T17:27:28.780Z,86.14
2022-12-20T17:29:56.371Z,85.80
2022-12-20T17:32:26.317Z,86.10
2022-12-20T17:34:54.436Z,85.90
2022-12-20T17:37:22.198Z,86.35
2022-12-20T17:39:50.207Z,86.35
2022-12-20T17:42:18.969Z,86.22
2022-12-20T17:44:47.199Z,86.33
2022-12-20T17:47:16.957Z,86.75
2022-12-20T17:49:44.701Z,86.75
2022-12-20T17:52:16.111Z,86.90
2022-12-20T17:54:46.254Z,86.65
2022-12-20T17:57:15.898Z,86.81
2022-12-20T17:59:43.959Z,86.64
2022-12-20T18:02:30.312Z,86.90
2022-12-20T18:04:58.097Z,86.58
2022-12-20T18:07:25.708Z,86.87
2022-12-20T18:09:54.742Z,87.32
2022-12-20T18:12:24.794Z,87.46
2022-12-20T18:14:52.461Z,87.31
2022-12-20T18:17:20.393Z,87.34
2022-12-20T18:19:52.019Z,87.85
2022-12-20T18:22:19.612Z,87.96
2022-12-20T18:24:47.423Z,87.97
2022-12-20T18:27:16.204Z,88.60
2022-12-20T18:29:43.882Z,88.25
2022-12-20T18:32:14.088Z,88.64
2022-12-20T18:34:45.313Z,88.96
2022-12-20T18:37:12.994Z,88.92
2022-12-20T18:39:40.624Z,89.75
2022-12-20T18:42:08.603Z,88.83
2022-12-20T18:44:36.562Z,89.44
2022-12-20T18:47:04.320Z,89.77
2022-12-20T18:49:32.143Z,89.78
2022-12-20T18:52:01.847Z,90.02
2022-12-20T18:54:31.833Z,90.52
2022-12-20T18:56:59.887Z,90.28
2022-12-20T18:59:27.567Z,90.33
2022-12-20T19:01:55.513Z,90.29
2022-12-20T19:04:25.086Z,90.56
2022-12-20T19:06:53.909Z,91.25
2022-12-20T19:09:21.607Z,91.21
2022-12-20T19:11:56.325Z,90.45
2022-12-20T19:14:25.128Z,91.30
2022-12-20T19:16:54.091Z,91.09
2022-12-20T19:19:21.816Z,91.42
2022-12-20T19:21:49.442Z,92.04
2022-12-20T19:24:17.435Z,91.67
2022-12-20T19:26:45.386Z,91.79
2022-12-20T19:29:13.137Z,91.62
2022-12-20T19:31:41.067Z,90.87
2022-12-20T19:34:12.495Z,91.06
2022-12-20T19:36:45.767Z,91.17
2022-12-20T19:39:20.978Z,91.20
2022-12-20T19:44:37.266Z,91.26
2022-12-20T19:47:04.944Z,90.50
2022-12-20T19:49:32.770Z,89.91
2022-12-20T19:52:00.439Z,90.23
2022-12-20T19:54:29.015Z,89.70
2022-12-20T19:56:57.533Z,89.67
2022-12-20T19:59:26.068Z,89.53
2022-12-20T20:01:54.320Z,89.51
2022-12-20T20:04:22.138Z,89.81
2022-12-20T20:06:49.917Z,89.58
2022-12-20T20:09:17.599Z,89.79
2022-12-20T20:11:45.382Z,89.27
2022-12-20T20:14:15.370Z,89.16
2022-12-20T20:16:43.996Z,88.92
2022-12-20T20:19:11.791Z,88.69
2022-12-20T20:21:39.433Z,88.70
2022-12-20T20:24:08.894Z,88.75
2022-12-20T20:26:40.315Z,88.68
2022-12-20T20:29:10.437Z,88.70
2022-12-20T20:31:41.128Z,88.79
2022-12-20T20:34:09.965Z,88.98
2022-12-20T20:36:38.063Z,89.15
2022-12-20T20:39:08.763Z,89.16
2022-12-20T20:41:37.695Z,89.47
2022-12-20T20:44:10.821Z,89.26
2022-12-20T20:46:38.535Z,89.34
2022-12-20T20:49:06.215Z,89.24
2022-12-20T20:51:34.371Z,89.24
2022-12-20T20:54:04.288Z,89.35
2022-12-20T20:56:32.711Z,89.37
2022-12-20T20:59:05.972Z,89.29
2022-12-20T21:01:36.611Z,89.44
2022-12-20T21:04:05.323Z,89.48
2022-12-20T21:06:41.139Z,89.50
2022-12-20T21:09:13.292Z,89.66
2022-12-20T21:11:43.195Z,89.86
2022-12-20T21:14:25.712Z,90.21
2022-12-20T21:17:06.232Z,90.18
2022-12-20T21:19:34.009Z,90.10
2022-12-20T21:22:01.635Z,89.71
2022-12-20T21:24:29.802Z,89.74
2022-12-20T21:26:57.466Z,89.74
2022-12-20T21:29:25.087Z,89.58
2022-12-20T21:31:55.169Z,89.31
2022-12-20T21:34:22.987Z,89.25
2022-12-20T21:36:50.676Z,89.20
2022-12-20T21:39:18.380Z,89.11
2022-12-20T21:41:46.070Z,88.78
2022-12-20T21:44:13.765Z,88.78
2022-12-20T21:46:41.656Z,88.78
2022-12-20T21:49:09.709Z,88.62
2022-12-20T21:51:37.371Z,88.64
2022-12-20T21:54:05.745Z,88.60
2022-12-20T21:56:35.626Z,88.73
2022-12-20T21:59:05.256Z,88.67
2022-12-20T22:01:33.656Z,88.75
2022-12-20T22:04:04.692Z,88.79
2022-12-20T22:06:32.853Z,88.74
2022-12-20T22:09:02.132Z,88.62
2022-12-20T22:11:31.448Z,88.61
2022-12-20T22:13:59.119Z,88.55
2022-12-20T22:16:29.202Z,88.61
2022-12-20T22:18:58.543Z,88.55
2022-12-20T22:21:30.476Z,88.51
2022-12-20T22:23:59.340Z,88.42
2022-12-20T22:26:30.637Z,88.41
2022-12-20T22:29:07.027Z,88.32
2022-12-20T22:31:35.776Z,88.32
2022-12-20T22:34:06.122Z,88.23
2022-12-20T22:36:33.935Z,88.29
2022-12-20T22:39:01.673Z,88.25
2022-12-20T22:41:32.547Z,88.24
2022-12-20T22:44:00.864Z,88.16
2022-12-20T22:46:30.301Z,87.99
2022-12-20T22:48:59.470Z,87.89
2022-12-20T22:51:29.420Z,87.79
2022-12-20T22:53:59.115Z,87.87
2022-12-20T22:56:27.244Z,87.69
2022-12-20T22:58:54.929Z,87.62
2022-12-20T23:01:22.674Z,87.63
2022-12-20T23:03:50.723Z,87.64
2022-12-20T23:06:21.166Z,87.44
2022-12-20T23:08:49.838Z,87.58
2022-12-20T23:11:39.298Z,87.51
2022-12-20T23:14:29.212Z,87.45
2022-12-20T23:16:57.669Z,87.41
2022-12-20T23:19:25.475Z,87.38
2022-12-20T23:22:10.492Z,87.58
2022-12-20T23:24:39.213Z,87.48
2022-12-20T23:27:10.392Z,87.48
2022-12-20T23:29:38.694Z,87.25
2022-12-20T23:32:06.391Z,87.16
2022-12-20T23:34:34.667Z,87.03
2022-12-20T23:37:02.288Z,87.08
2022-12-20T23:39:33.522Z,87.09
2022-12-20T23:42:01.180Z,86.95
2022-12-20T23:44:28.852Z,86.83
2022-12-20T23:46:56.468Z,86.80
2022-12-20T23:49:24.082Z,86.93
2022-12-20T23:51:54.457Z,86.80
2022-12-20T23:54:22.416Z,86.76
2022-12-20T23:56:50.821Z,86.69
2022-12-20T23:59:18.499Z,86.48
